createdAt,value
2017-08-15T00:00:50.658Z,99.99
2017-08-15T00:01:50.684Z,99.99
2017-08-15T00:02:50.694Z,99.99
2017-08-15T00:03:50.717Z,99.99
2017-08-15T00:04:50.739Z,99.99
2017-08-15T00:05:50.774Z,99.99
2017-08-15T00:06:50.795Z,99.99
2017-08-15T00:09:50.864Z,99.99
2017-08-15T00:10:50.890Z,99.99
2017-08-15T00:11:50.926Z,99.99
2017-08-15T00:13:05.546Z,99.99
2017-08-15T00:13:50.967Z,99.99
2017-08-15T00:14:50.992Z,99.99
2017-08-15T00:15:51.013Z,99.99
2017-08-15T00:16:51.039Z,99.99
2017-08-15T00:17:51.060Z,99.99
2017-08-15T00:18:51.086Z,99.99
2017-08-15T00:19:51.124Z,99.99
2017-08-15T00:20:51.137Z,99.99
2017-08-15T00:21:51.164Z,99.99
2017-08-15T00:22:51.181Z,99.99
2017-08-15T00:23:51.212Z,99.99
2017-08-15T00:24:51.235Z,99.99
2017-08-15T00:25:51.246Z,99.99
2017-08-15T00:26:51.279Z,99.99
2017-08-15T00:27:51.305Z,99.99
2017-08-15T00:28:51.329Z,99.99
2017-08-15T00:31:51.407Z,99.99
2017-08-15T00:32:51.429Z,99.99
2017-08-15T00:33:51.140Z,99.99
2017-08-15T00:34:51.164Z,99.99
2017-08-15T00:35:51.184Z,99.99
2017-08-15T00:36:51.519Z,99.99
2017-08-15T00:37:51.548Z,99.99
2017-08-15T00:38:51.565Z,99.99
2017-08-15T00:39:51.280Z,99.99
2017-08-15T00:40:51.307Z,99.99
2017-08-15T00:41:51.628Z,99.99
2017-08-15T00:42:51.654Z,99.99
2017-08-15T00:43:51.374Z,99.99
2017-08-15T00:45:06.306Z,99.99
2017-08-15T00:45:51.731Z,99.99
2017-08-15T00:46:51.741Z,99.99
2017-08-15T00:48:51.801Z,99.99
2017-08-15T00:49:51.820Z,99.99
2017-08-15T00:50:51.845Z,99.99
2017-08-15T00:51:51.879Z,99.99
2017-08-15T00:52:51.896Z,99.99
2017-08-15T00:54:51.952Z,99.99
2017-08-15T00:55:51.969Z,99.99
2017-08-15T00:56:51.995Z,99.99
2017-08-15T00:57:52.019Z,99.99
2017-08-15T00:58:52.036Z,99.99
2017-08-15T00:59:51.759Z,99.99
2017-08-15T01:01:06.688Z,99.99
2017-08-15T01:01:52.115Z,99.99
2017-08-15T01:02:52.137Z,99.99
2017-08-15T01:03:52.159Z,99.99
2017-08-15T01:04:52.188Z,99.99
2017-08-15T01:05:52.192Z,99.99
2017-08-15T01:06:52.223Z,99.99
2017-08-15T01:07:52.251Z,99.99
2017-08-15T01:08:52.280Z,99.99
2017-08-15T01:09:52.306Z,99.99
2017-08-15T01:10:52.317Z,99.99
2017-08-15T01:11:52.355Z,99.99
2017-08-15T01:12:52.373Z,99.99
2017-08-15T01:14:52.409Z,99.99
2017-08-15T01:15:52.443Z,99.99
2017-08-15T01:17:07.062Z,99.99
2017-08-15T01:17:52.483Z,99.99
2017-08-15T01:18:52.520Z,99.99
2017-08-15T01:19:52.531Z,99.99
2017-08-15T01:20:52.569Z,99.99
2017-08-15T01:21:52.570Z,99.99
2017-08-15T01:22:52.659Z,99.99
2017-08-15T01:23:52.317Z,99.99
2017-08-15T01:24:52.646Z,99.99
2017-08-15T01:27:52.728Z,99.99
2017-08-15T01:28:52.753Z,99.99
2017-08-15T01:29:52.767Z,99.99
2017-08-15T01:30:52.804Z,99.99
2017-08-15T01:31:52.806Z,99.99
2017-08-15T01:33:07.445Z,99.99
2017-08-15T01:33:52.864Z,99.99
2017-08-15T01:34:52.891Z,99.99
2017-08-15T01:35:52.604Z,99.99
2017-08-15T01:36:52.931Z,99.99
2017-08-15T01:37:52.971Z,99.99
2017-08-15T01:38:52.981Z,99.99
2017-08-15T01:39:53.011Z,99.99
2017-08-15T01:40:53.027Z,99.99
2017-08-15T01:41:53.058Z,99.99
2017-08-15T01:42:53.121Z,99.99
2017-08-15T01:43:53.086Z,99.99
2017-08-15T01:44:53.132Z,99.99
2017-08-15T01:45:53.151Z,99.99
2017-08-15T01:46:53.178Z,99.99
2017-08-15T01:48:07.792Z,99.99
2017-08-15T01:48:53.224Z,99.99
2017-08-15T01:49:52.931Z,99.99
2017-08-15T01:50:52.958Z,99.99
2017-08-15T01:51:52.974Z,99.99
2017-08-15T01:52:53.015Z,99.99
2017-08-15T01:53:53.329Z,99.99
2017-08-15T01:54:53.053Z,99.99
2017-08-15T01:55:53.066Z,99.99
2017-08-15T01:56:53.416Z,99.99
2017-08-15T01:57:53.129Z,99.99
2017-08-15T01:58:53.183Z,99.99
2017-08-15T01:59:53.477Z,99.99
2017-08-15T02:00:53.489Z,99.99
2017-08-15T02:01:53.221Z,99.99
2017-08-15T02:03:53.575Z,99.99
2017-08-15T02:04:53.594Z,99.99
2017-08-15T02:05:53.608Z,99.99
2017-08-15T02:06:53.653Z,99.99
2017-08-15T02:08:53.383Z,99.99
2017-08-15T02:09:53.707Z,99.99
2017-08-15T02:10:53.734Z,99.99
2017-08-15T02:11:53.447Z,99.99
2017-08-15T02:13:53.805Z,99.99
2017-08-15T02:14:53.830Z,99.99
2017-08-15T02:15:53.847Z,99.99
2017-08-15T02:16:53.869Z,99.99
2017-08-15T02:17:53.906Z,99.99
2017-08-15T02:18:53.912Z,99.99
2017-08-15T02:20:08.544Z,99.99
2017-08-15T02:20:53.958Z,99.99
2017-08-15T02:21:53.990Z,99.99
2017-08-15T02:22:53.699Z,99.99
2017-08-15T02:23:54.040Z,99.99
2017-08-15T02:24:54.065Z,99.99
2017-08-15T02:25:54.097Z,99.99
2017-08-15T02:26:54.103Z,99.99
2017-08-15T02:27:54.141Z,99.99
2017-08-15T02:28:54.162Z,99.99
2017-08-15T02:29:54.187Z,99.99
2017-08-15T02:30:54.195Z,99.99
2017-08-15T02:31:53.913Z,99.99
2017-08-15T02:32:53.937Z,99.99
2017-08-15T02:33:54.275Z,99.99
2017-08-15T02:34:53.997Z,99.99
2017-08-15T02:36:08.915Z,99.99
2017-08-15T02:36:54.350Z,99.99
2017-08-15T02:37:54.054Z,99.99
2017-08-15T02:38:54.404Z,99.99
2017-08-15T02:39:54.413Z,99.99
2017-08-15T02:40:54.435Z,99.99
2017-08-15T02:41:54.151Z,99.99
2017-08-15T02:42:54.482Z,99.99
2017-08-15T02:43:54.198Z,99.99
2017-08-15T02:45:54.557Z,99.99
2017-08-15T02:46:54.265Z,99.99
2017-08-15T02:47:54.593Z,99.99
2017-08-15T02:48:54.311Z,99.99
2017-08-15T02:49:54.334Z,99.99
2017-08-15T02:52:09.286Z,99.99
2017-08-15T02:52:54.718Z,99.99
2017-08-15T02:53:54.437Z,99.99
2017-08-15T02:54:54.453Z,99.99
2017-08-15T02:55:54.789Z,99.99
2017-08-15T02:56:54.498Z,99.99
2017-08-15T02:57:54.837Z,99.99
2017-08-15T02:58:54.867Z,99.99
2017-08-15T02:59:54.877Z,99.99
2017-08-15T03:00:54.585Z,99.99
2017-08-15T03:01:54.922Z,99.99
2017-08-15T03:02:54.638Z,99.99
2017-08-15T03:03:54.659Z,99.99
2017-08-15T03:04:54.999Z,99.99
2017-08-15T03:05:54.713Z,99.99
2017-08-15T03:06:55.040Z,99.99
2017-08-15T03:08:09.658Z,99.99
2017-08-15T03:08:55.083Z,99.99
2017-08-15T03:09:55.113Z,99.99
2017-08-15T03:10:54.824Z,99.99
2017-08-15T03:11:54.845Z,99.99
2017-08-15T03:12:54.874Z,99.99
2017-08-15T03:13:55.197Z,99.99
2017-08-15T03:14:54.922Z,99.99
2017-08-15T03:15:55.246Z,99.99
2017-08-15T03:16:54.962Z,99.99
2017-08-15T03:17:55.291Z,99.99
2017-08-15T03:18:55.314Z,99.99
2017-08-15T03:20:55.056Z,99.99
2017-08-15T03:23:10.011Z,99.99
2017-08-15T03:23:55.440Z,99.99
2017-08-15T03:24:55.146Z,99.99
2017-08-15T03:25:55.170Z,99.99
2017-08-15T03:27:55.532Z,99.99
2017-08-15T03:28:55.542Z,99.99
2017-08-15T03:29:55.577Z,99.99
2017-08-15T03:30:55.622Z,99.99
2017-08-15T03:31:55.311Z,99.99
2017-08-15T03:32:55.640Z,99.99
2017-08-15T03:33:55.656Z,99.99
2017-08-15T03:34:55.691Z,99.99
2017-08-15T03:35:55.713Z,99.99
2017-08-15T03:36:55.429Z,99.99
2017-08-15T03:37:55.450Z,99.99
2017-08-15T03:38:55.477Z,99.99
2017-08-15T03:39:55.812Z,99.99
2017-08-15T03:40:55.817Z,99.99
2017-08-15T03:41:55.865Z,99.99
2017-08-15T03:42:55.878Z,99.99
2017-08-15T03:43:55.590Z,99.99
2017-08-15T03:45:55.937Z,99.99
2017-08-15T03:46:55.660Z,99.99
2017-08-15T03:47:55.981Z,99.99
2017-08-15T03:49:56.038Z,99.99
2017-08-15T03:50:56.065Z,99.99
2017-08-15T03:51:55.771Z,99.99
2017-08-15T03:52:56.129Z,99.99
2017-08-15T03:53:55.812Z,99.99
2017-08-15T03:55:10.749Z,99.99
2017-08-15T03:55:56.180Z,99.99
2017-08-15T03:56:56.208Z,99.99
2017-08-15T03:57:56.221Z,99.99
2017-08-15T03:58:56.240Z,99.99
2017-08-15T03:59:56.266Z,99.99
2017-08-15T04:00:56.290Z,99.99
2017-08-15T04:01:56.331Z,99.99
2017-08-15T04:02:56.336Z,99.99
2017-08-15T04:03:56.363Z,99.99
2017-08-15T04:04:56.384Z,99.99
2017-08-15T04:05:56.397Z,99.99
2017-08-15T04:07:56.452Z,99.99
2017-08-15T04:08:56.475Z,99.99
2017-08-15T04:09:56.500Z,99.99
2017-08-15T04:11:11.118Z,99.99
2017-08-15T04:11:56.547Z,99.99
2017-08-15T04:12:56.572Z,99.99
2017-08-15T04:13:56.592Z,99.99
2017-08-15T04:14:56.608Z,99.99
2017-08-15T04:15:56.323Z,99.99
2017-08-15T04:16:56.716Z,99.99
2017-08-15T04:18:56.700Z,99.99
2017-08-15T04:19:56.728Z,99.99
2017-08-15T04:20:56.742Z,99.99
2017-08-15T04:21:56.779Z,99.99
2017-08-15T04:22:56.797Z,99.99
2017-08-15T04:23:56.811Z,99.99
2017-08-15T04:24:56.853Z,99.99
2017-08-15T04:25:56.875Z,99.99
2017-08-15T04:27:11.489Z,99.99
2017-08-15T04:28:56.940Z,99.99
2017-08-15T04:29:56.965Z,99.99
2017-08-15T04:31:57.018Z,99.99
2017-08-15T04:32:57.032Z,99.99
2017-08-15T04:33:57.059Z,99.99
2017-08-15T04:34:57.080Z,99.99
2017-08-15T04:35:57.092Z,99.99
2017-08-15T04:36:57.132Z,99.99
2017-08-15T04:37:57.143Z,99.99
2017-08-15T04:38:57.178Z,99.99
2017-08-15T04:39:57.186Z,99.99
2017-08-15T04:40:56.905Z,99.99
2017-08-15T04:41:57.242Z,99.99
2017-08-15T04:43:11.863Z,99.99
2017-08-15T04:43:57.291Z,99.99
2017-08-15T04:44:57.312Z,99.99
2017-08-15T04:45:57.346Z,99.99
2017-08-15T04:46:57.353Z,99.99
2017-08-15T04:47:57.382Z,99.99
2017-08-15T04:48:57.393Z,99.99
2017-08-15T04:49:57.433Z,99.99
2017-08-15T04:50:57.447Z,99.99
2017-08-15T04:51:57.477Z,99.99
2017-08-15T04:52:57.489Z,99.99
2017-08-15T04:53:57.520Z,99.99
2017-08-15T04:54:57.551Z,99.99
2017-08-15T04:55:57.557Z,99.96
2017-08-15T04:56:57.302Z,96.89
2017-08-15T04:58:12.211Z,92.15
2017-08-15T04:58:57.336Z,89.89
2017-08-15T05:00:57.700Z,84.78
2017-08-15T05:01:57.716Z,82.14
2017-08-15T05:02:57.740Z,80.44
2017-08-15T05:03:57.446Z,78.36
2017-08-15T05:04:57.794Z,77.06
2017-08-15T05:05:57.810Z,75.26
2017-08-15T05:06:57.844Z,73.75
2017-08-15T05:07:57.869Z,72.63
2017-08-15T05:08:57.893Z,72.15
2017-08-15T05:09:57.909Z,71.38
2017-08-15T05:10:57.937Z,70.64
2017-08-15T05:11:57.982Z,69.49
2017-08-15T05:12:58.008Z,68.75
2017-08-15T05:13:58.026Z,68.55
2017-08-15T05:15:58.074Z,67.69
2017-08-15T05:16:58.120Z,67.43
2017-08-15T05:17:58.141Z,67.43
2017-08-15T05:18:58.181Z,65.98
2017-08-15T05:19:58.195Z,65.72
2017-08-15T05:20:58.227Z,64.95
2017-08-15T05:21:58.270Z,63.92
2017-08-15T05:22:58.282Z,63.46
2017-08-15T05:23:58.328Z,61.82
2017-08-15T05:24:58.345Z,62.04
2017-08-15T05:25:58.074Z,61.43
2017-08-15T05:28:58.460Z,60.14
2017-08-15T05:30:13.103Z,60.59
2017-08-15T05:30:58.218Z,60.3
2017-08-15T05:31:58.570Z,60.4
2017-08-15T05:33:58.628Z,59.91
2017-08-15T05:34:58.353Z,60.01
2017-08-15T05:35:58.683Z,60.01
2017-08-15T05:36:58.721Z,59.46
2017-08-15T05:37:58.438Z,58.52
2017-08-15T05:38:58.799Z,57.87
2017-08-15T05:39:58.810Z,56.54
2017-08-15T05:40:58.851Z,55.77
2017-08-15T05:41:58.882Z,55.77
2017-08-15T05:42:58.918Z,55.41
2017-08-15T05:43:58.946Z,55.5
2017-08-15T05:44:58.980Z,56.45
2017-08-15T05:46:13.615Z,56.15
2017-08-15T05:46:59.044Z,55.87
2017-08-15T05:47:59.079Z,56.05
2017-08-15T05:48:59.165Z,57.12
2017-08-15T05:49:59.158Z,56.54
2017-08-15T05:50:59.171Z,57.19
2017-08-15T05:51:59.203Z,56.81
2017-08-15T05:52:59.241Z,56.13
2017-08-15T05:55:59.365Z,55.41
2017-08-15T05:57:59.416Z,56.74
2017-08-15T05:58:59.457Z,57.26
2017-08-15T05:59:59.478Z,56.81
2017-08-15T06:00:59.500Z,56.45
2017-08-15T06:02:14.147Z,55.79
2017-08-15T06:02:59.594Z,55.67
2017-08-15T06:03:59.612Z,55.79
2017-08-15T06:04:59.654Z,55.87
2017-08-15T06:05:59.673Z,55.38
2017-08-15T06:06:59.730Z,56.35
2017-08-15T06:07:59.439Z,56.41
2017-08-15T06:08:59.777Z,56.64
2017-08-15T06:09:59.820Z,55.57
2017-08-15T06:10:59.857Z,56.35
2017-08-15T06:11:59.885Z,55.41
2017-08-15T06:12:59.913Z,55.41
2017-08-15T06:13:59.955Z,55.79
2017-08-15T06:14:59.675Z,54.56
2017-08-15T06:16:00.031Z,54.56
2017-08-15T06:17:00.056Z,54.72
2017-08-15T06:18:14.694Z,54.46
2017-08-15T06:19:00.129Z,54.75
2017-08-15T06:20:00.154Z,53.88
2017-08-15T06:21:00.203Z,53.91
2017-08-15T06:22:00.239Z,53.32
2017-08-15T06:24:00.305Z,53.32
2017-08-15T06:25:00.332Z,53.25
2017-08-15T06:26:00.364Z,53.61
2017-08-15T06:27:00.406Z,53.81
2017-08-15T06:28:00.445Z,53.35
2017-08-15T06:29:00.480Z,52.28
2017-08-15T06:30:00.507Z,52.57
2017-08-15T06:31:00.544Z,53.61
2017-08-15T06:32:00.585Z,54.03
2017-08-15T06:33:15.218Z,52.84
2017-08-15T06:34:00.649Z,52.96
2017-08-15T06:35:00.687Z,52.76
2017-08-15T06:36:00.723Z,52.37
2017-08-15T06:37:00.748Z,52.86
2017-08-15T06:38:00.795Z,53.16
2017-08-15T06:40:00.868Z,52.67
2017-08-15T06:41:00.905Z,52.28
2017-08-15T06:42:00.936Z,51.82
2017-08-15T06:44:01.002Z,52.31
2017-08-15T06:46:01.082Z,51.82
2017-08-15T06:47:01.102Z,51.82
2017-08-15T06:48:00.844Z,52.4
2017-08-15T06:49:01.184Z,52.4
2017-08-15T06:50:01.219Z,52.21
2017-08-15T06:51:01.258Z,51.07
2017-08-15T06:52:01.290Z,50.6
2017-08-15T06:54:01.372Z,51.19
2017-08-15T06:55:01.399Z,50.51
2017-08-15T06:56:01.437Z,50.53
2017-08-15T06:57:01.460Z,51.02
2017-08-15T06:58:01.519Z,49.32
2017-08-15T06:59:01.547Z,48.24
2017-08-15T07:00:01.590Z,48.44
2017-08-15T07:01:01.619Z,49.19
2017-08-15T07:02:01.648Z,49.27
2017-08-15T07:03:01.689Z,50.73
2017-08-15T07:04:01.731Z,49.46
2017-08-15T07:05:16.359Z,50.75
2017-08-15T07:06:01.794Z,49.9
2017-08-15T07:07:01.832Z,47.19
2017-08-15T07:08:01.857Z,47.58
2017-08-15T07:09:01.904Z,48.17
2017-08-15T07:10:01.950Z,47.78
2017-08-15T07:11:01.979Z,48.17
2017-08-15T07:12:02.006Z,48.73
2017-08-15T07:13:02.059Z,48.93
2017-08-15T07:14:02.085Z,49.29
2017-08-15T07:15:02.130Z,49.97
2017-08-15T07:16:02.160Z,47.75
2017-08-15T07:17:02.192Z,48.17
2017-08-15T07:18:02.254Z,47.66
2017-08-15T07:19:02.262Z,47.58
2017-08-15T07:20:02.308Z,47.02
2017-08-15T07:21:16.941Z,47.41
2017-08-15T07:22:02.379Z,48.71
2017-08-15T07:23:02.416Z,49.24
2017-08-15T07:24:02.445Z,47.22
2017-08-15T07:26:02.528Z,45.61
2017-08-15T07:27:02.564Z,46.09
2017-08-15T07:28:02.595Z,45.95
2017-08-15T07:29:02.627Z,47.31
2017-08-15T07:30:02.680Z,48.17
2017-08-15T07:31:02.714Z,48.19
2017-08-15T07:32:02.748Z,47.02
2017-08-15T07:33:02.767Z,47.8
2017-08-15T07:35:02.858Z,48.44
2017-08-15T07:36:02.888Z,48.24
2017-08-15T07:37:17.528Z,47.78
2017-08-15T07:38:02.654Z,47.61
2017-08-15T07:39:03.000Z,47.41
2017-08-15T07:40:03.038Z,47.31
2017-08-15T07:41:03.077Z,47.53
2017-08-15T07:42:03.111Z,47.31
2017-08-15T07:44:03.181Z,48.78
2017-08-15T07:45:03.222Z,47.22
2017-08-15T07:46:03.252Z,46.46
2017-08-15T07:47:03.293Z,46.75
2017-08-15T07:48:03.321Z,46.75
2017-08-15T07:49:03.364Z,47.12
2017-08-15T07:50:03.393Z,47.31
2017-08-15T07:51:03.435Z,47.31
2017-08-15T07:52:03.472Z,47.9
2017-08-15T07:53:18.110Z,47.41
2017-08-15T07:54:03.546Z,47.71
2017-08-15T07:55:03.582Z,47.34
2017-08-15T07:56:03.322Z,47.05
2017-08-15T07:57:03.653Z,47.8
2017-08-15T07:58:03.694Z,47.97
2017-08-15T07:59:03.737Z,49.71
2017-08-15T08:00:03.772Z,49.68
2017-08-15T08:01:03.799Z,50.73
2017-08-15T08:04:03.904Z,50.65
2017-08-15T08:05:03.949Z,50.26
2017-08-15T08:06:03.988Z,49.51
2017-08-15T08:07:04.022Z,48.85
2017-08-15T08:08:18.655Z,49.32
2017-08-15T08:09:04.088Z,49.22
2017-08-15T08:10:04.125Z,49.8
2017-08-15T08:11:04.156Z,49.71
2017-08-15T08:12:04.193Z,48.83
2017-08-15T08:13:04.234Z,47.8
2017-08-15T08:14:04.268Z,48.85
2017-08-15T08:15:04.305Z,49.24
2017-08-15T08:16:04.021Z,49.15
2017-08-15T08:17:04.067Z,49.63
2017-08-15T08:18:04.401Z,48.49
2017-08-15T08:19:04.128Z,47.83
2017-08-15T08:20:04.169Z,48.02
2017-08-15T08:21:04.208Z,48.68
2017-08-15T08:22:04.563Z,48.97
2017-08-15T08:23:04.578Z,48.58
2017-08-15T08:24:04.628Z,48.1
2017-08-15T08:25:04.340Z,48.46
2017-08-15T08:26:04.697Z,49.24
2017-08-15T08:27:04.415Z,49.51
2017-08-15T08:28:04.799Z,49.41
2017-08-15T08:29:04.805Z,50.09
2017-08-15T08:30:04.519Z,49.34
2017-08-15T08:31:04.863Z,48.58
2017-08-15T08:32:04.903Z,49.66
2017-08-15T08:33:04.947Z,49.97
2017-08-15T08:34:04.976Z,49.15
2017-08-15T08:35:05.011Z,49.05
2017-08-15T08:36:05.049Z,49.24
2017-08-15T08:37:05.084Z,49.9
2017-08-15T08:39:05.157Z,49.8
2017-08-15T08:40:19.784Z,49.34
2017-08-15T08:41:05.225Z,49.15
2017-08-15T08:42:05.244Z,49.54
2017-08-15T08:43:05.294Z,49.19
2017-08-15T08:45:05.353Z,47.92
2017-08-15T08:46:05.395Z,48.02
2017-08-15T08:47:05.425Z,47.34
2017-08-15T08:48:05.474Z,48.02
2017-08-15T08:49:05.488Z,47.31
2017-08-15T08:50:05.525Z,48.78
2017-08-15T08:51:05.571Z,48.17
2017-08-15T08:52:05.605Z,48.49
2017-08-15T08:53:05.328Z,48.85
2017-08-15T08:54:05.659Z,47.61
2017-08-15T08:55:05.399Z,47.83
2017-08-15T08:56:20.338Z,46.78
2017-08-15T08:57:05.786Z,46.43
2017-08-15T08:58:05.801Z,46.89
2017-08-15T08:59:05.538Z,45.55
2017-08-15T09:00:05.565Z,46.04
2017-08-15T09:01:05.928Z,46.5
2017-08-15T09:02:05.952Z,44.94
2017-08-15T09:04:06.024Z,45.53
2017-08-15T09:05:06.042Z,46.14
2017-08-15T09:06:06.088Z,45.33
2017-08-15T09:07:05.813Z,45.75
2017-08-15T09:08:06.150Z,45.14
2017-08-15T09:09:06.195Z,45.8
2017-08-15T09:10:05.922Z,46.58
2017-08-15T09:11:06.261Z,47.24
2017-08-15T09:12:20.896Z,48.1
2017-08-15T09:13:06.327Z,48.17
2017-08-15T09:14:06.051Z,47.97
2017-08-15T09:15:06.397Z,48.36
2017-08-15T09:16:06.428Z,47.88
2017-08-15T09:17:06.472Z,47.71
2017-08-15T09:18:06.494Z,47.14
2017-08-15T09:19:06.536Z,47.05
2017-08-15T09:20:06.566Z,47.14
2017-08-15T09:21:06.610Z,47.41
2017-08-15T09:22:06.626Z,48.27
2017-08-15T09:23:06.673Z,48.17
2017-08-15T09:24:06.704Z,48.36
2017-08-15T09:25:06.743Z,47.97
2017-08-15T09:26:06.457Z,47.61
2017-08-15T09:27:06.799Z,47.83
2017-08-15T09:28:21.437Z,46.97
2017-08-15T09:29:06.866Z,47.48
2017-08-15T09:30:06.906Z,46.11
2017-08-15T09:31:06.630Z,47.27
2017-08-15T09:32:06.979Z,46.88
2017-08-15T09:33:07.002Z,46.85
2017-08-15T09:34:07.038Z,46.85
2017-08-15T09:35:07.083Z,47.24
2017-08-15T09:36:06.800Z,46.97
2017-08-15T09:37:07.143Z,46.6
2017-08-15T09:38:07.173Z,46.11
2017-08-15T09:39:07.205Z,47.27
2017-08-15T09:40:07.244Z,45.61
2017-08-15T09:41:07.268Z,46.8
2017-08-15T09:42:07.312Z,46.11
2017-08-15T09:43:21.941Z,45.65
2017-08-15T09:44:07.380Z,45.62
2017-08-15T09:45:07.104Z,46.01
2017-08-15T09:46:07.445Z,46.58
2017-08-15T09:47:07.488Z,47.53
2017-08-15T09:48:07.513Z,47.22
2017-08-15T09:49:07.234Z,47.61
2017-08-15T09:50:07.264Z,47.51
2017-08-15T09:51:07.615Z,47.92
2017-08-15T09:52:07.634Z,48.07
2017-08-15T09:53:07.686Z,47.61
2017-08-15T09:54:07.726Z,47.34
2017-08-15T09:55:07.439Z,47.63
2017-08-15T09:56:07.770Z,47.46
2017-08-15T09:57:07.491Z,47.66
2017-08-15T09:58:07.530Z,47.95
2017-08-15T10:00:07.904Z,46.58
2017-08-15T10:01:07.944Z,46.19
2017-08-15T10:02:07.670Z,46.6
2017-08-15T10:03:08.006Z,46.31
2017-08-15T10:04:07.730Z,47.31
2017-08-15T10:06:08.111Z,45.01
2017-08-15T10:07:08.135Z,44.32
2017-08-15T10:08:08.184Z,45.62
2017-08-15T10:09:08.207Z,43.77
2017-08-15T10:10:08.241Z,44.17
2017-08-15T10:11:08.272Z,44.49
2017-08-15T10:12:07.993Z,45.26
2017-08-15T10:13:08.321Z,46.8
2017-08-15T10:14:08.360Z,46.7
2017-08-15T10:15:22.999Z,46.8
2017-08-15T10:16:08.424Z,46.33
2017-08-15T10:17:08.466Z,46.04
2017-08-15T10:18:08.497Z,47.38
2017-08-15T10:19:08.534Z,47.09
2017-08-15T10:20:08.563Z,45.75
2017-08-15T10:22:08.316Z,45.84
2017-08-15T10:23:08.671Z,45.62
2017-08-15T10:24:08.698Z,47.02
2017-08-15T10:25:08.718Z,47.19
2017-08-15T10:26:08.449Z,47.97
2017-08-15T10:27:08.805Z,48.32
2017-08-15T10:29:08.851Z,49.37
2017-08-15T10:30:08.892Z,49.17
2017-08-15T10:31:23.521Z,49.56
2017-08-15T10:32:08.960Z,49.54
2017-08-15T10:33:08.992Z,50.09
2017-08-15T10:34:08.706Z,50.78
2017-08-15T10:35:09.054Z,50.68
2017-08-15T10:36:08.770Z,51.04
2017-08-15T10:37:09.106Z,51.53
2017-08-15T10:38:09.157Z,51.07
2017-08-15T10:39:09.174Z,50.95
2017-08-15T10:40:09.209Z,51.04
2017-08-15T10:41:09.244Z,51.43
2017-08-15T10:42:08.969Z,52.19
2017-08-15T10:43:09.304Z,52.19
2017-08-15T10:44:09.035Z,54.36
2017-08-15T10:45:09.369Z,52.12
2017-08-15T10:46:09.391Z,51.63
2017-08-15T10:47:24.034Z,52.34
2017-08-15T10:48:09.465Z,51.07
2017-08-15T10:49:09.189Z,51.46
2017-08-15T10:50:09.536Z,52.31
2017-08-15T10:51:09.563Z,51.43
2017-08-15T10:52:09.282Z,52.5
2017-08-15T10:54:09.354Z,51.63
2017-08-15T10:55:09.685Z,51.7
2017-08-15T10:56:09.716Z,52.58
2017-08-15T10:57:09.738Z,51.9
2017-08-15T10:58:09.779Z,53.33
2017-08-15T10:59:09.812Z,52.45
2017-08-15T11:00:09.851Z,53.14
2017-08-15T11:01:09.881Z,53.62
2017-08-15T11:02:09.896Z,52.94
2017-08-15T11:03:24.535Z,56.05
2017-08-15T11:04:09.653Z,53.52
2017-08-15T11:05:10.000Z,53.06
2017-08-15T11:06:09.712Z,52.94
2017-08-15T11:07:10.056Z,53.04
2017-08-15T11:08:09.784Z,52.94
2017-08-15T11:09:10.112Z,52.84
2017-08-15T11:10:10.156Z,52.58
2017-08-15T11:11:09.872Z,51.31
2017-08-15T11:12:09.909Z,51.21
2017-08-15T11:13:10.238Z,50.82
2017-08-15T11:14:10.288Z,51.39
2017-08-15T11:15:10.302Z,50.92
2017-08-15T11:16:10.033Z,50.75
2017-08-15T11:17:10.059Z,50.36
2017-08-15T11:18:25.000Z,49.97
2017-08-15T11:19:10.429Z,49.41
2017-08-15T11:21:10.495Z,50.16
2017-08-15T11:22:10.523Z,50.56
2017-08-15T11:23:10.239Z,50.65
2017-08-15T11:24:10.582Z,49.58
2017-08-15T11:25:10.311Z,50.65
2017-08-15T11:26:10.331Z,50.65
2017-08-15T11:27:10.672Z,51.04
2017-08-15T11:28:10.391Z,52.4
2017-08-15T11:29:10.424Z,52.89
2017-08-15T11:30:10.767Z,52.12
2017-08-15T11:31:10.491Z,52.97
2017-08-15T11:32:10.828Z,51.61
2017-08-15T11:33:10.865Z,52.84
2017-08-15T11:34:10.876Z,53.04
2017-08-15T11:35:10.949Z,52.84
2017-08-15T11:36:10.948Z,53.3
2017-08-15T11:37:10.983Z,53.52
2017-08-15T11:38:11.010Z,53.42
2017-08-15T11:39:11.035Z,53.01
2017-08-15T11:40:11.069Z,53.5
2017-08-15T11:41:11.097Z,53.52
2017-08-15T11:42:11.130Z,52.55
2017-08-15T11:43:11.154Z,52.65
2017-08-15T11:44:11.188Z,52.16
2017-08-15T11:45:11.216Z,52.55
2017-08-15T11:46:11.250Z,52.23
2017-08-15T11:47:11.285Z,52.82
2017-08-15T11:48:11.310Z,52.14
2017-08-15T11:49:11.335Z,53.01
2017-08-15T11:50:25.968Z,53.01
2017-08-15T11:51:11.399Z,53.62
2017-08-15T11:52:11.425Z,52.92
2017-08-15T11:53:11.459Z,53.42
2017-08-15T11:54:11.487Z,52.55
2017-08-15T11:55:11.516Z,52.26
2017-08-15T11:56:11.547Z,52.53
2017-08-15T11:57:11.564Z,55.25
2017-08-15T11:58:11.600Z,53.4
2017-08-15T12:00:11.350Z,52.19
2017-08-15T12:01:11.706Z,51.9
2017-08-15T12:02:11.727Z,52.87
2017-08-15T12:03:11.765Z,51.51
2017-08-15T12:04:11.781Z,52.48
2017-08-15T12:05:11.822Z,51.02
2017-08-15T12:06:26.443Z,51.21
2017-08-15T12:07:11.871Z,52.09
2017-08-15T12:08:11.902Z,51.02
2017-08-15T12:09:11.938Z,50.53
2017-08-15T12:10:11.970Z,50.56
2017-08-15T12:11:11.998Z,50.38
2017-08-15T12:12:12.020Z,49.51
2017-08-15T12:13:12.048Z,49.71
2017-08-15T12:14:12.081Z,50.29
2017-08-15T12:17:12.161Z,49.78
2017-08-15T12:18:12.211Z,49.88
2017-08-15T12:19:12.225Z,50.16
2017-08-15T12:20:12.266Z,50.85
2017-08-15T12:21:12.287Z,50.92
2017-08-15T12:22:26.921Z,50.82
2017-08-15T12:23:12.360Z,50.82
2017-08-15T12:24:12.069Z,50.63
2017-08-15T12:25:12.419Z,51.9
2017-08-15T12:26:12.434Z,50.92
2017-08-15T12:27:12.470Z,50.46
2017-08-15T12:28:12.499Z,51.43
2017-08-15T12:29:12.534Z,50.82
2017-08-15T12:30:12.553Z,50.95
2017-08-15T12:31:12.591Z,50.65
2017-08-15T12:32:12.315Z,50.14
2017-08-15T12:33:12.336Z,50.63
2017-08-15T12:34:12.680Z,50.82
2017-08-15T12:35:12.709Z,50.73
2017-08-15T12:36:12.730Z,50.51
2017-08-15T12:37:12.780Z,50.6
2017-08-15T12:38:27.394Z,50.7
2017-08-15T12:39:12.832Z,51.19
2017-08-15T12:40:12.869Z,50.51
2017-08-15T12:41:12.885Z,51.09
2017-08-15T12:42:12.928Z,52.36
2017-08-15T12:43:12.948Z,52.23
2017-08-15T12:44:12.979Z,52.36
2017-08-15T12:45:13.006Z,52.33
2017-08-15T12:46:13.033Z,50.9
2017-08-15T12:48:12.779Z,51.29
2017-08-15T12:49:13.172Z,52.36
2017-08-15T12:50:13.159Z,52.36
2017-08-15T12:51:13.182Z,52.55
2017-08-15T12:52:13.219Z,53.11
2017-08-15T12:53:27.843Z,53.23
2017-08-15T12:54:13.273Z,53.62
2017-08-15T12:55:13.301Z,52.36
2017-08-15T12:56:13.334Z,51.99
2017-08-15T12:57:13.056Z,51.12
2017-08-15T12:58:13.387Z,51.21
2017-08-15T12:59:13.427Z,50.92
2017-08-15T13:00:13.133Z,50.75
2017-08-15T13:01:13.485Z,51.02
2017-08-15T13:02:13.499Z,50.92
2017-08-15T13:03:13.540Z,51.99
2017-08-15T13:04:13.571Z,51.9
2017-08-15T13:05:13.606Z,50.46
2017-08-15T13:06:13.630Z,51.53
2017-08-15T13:07:13.649Z,51.12
2017-08-15T13:08:13.691Z,50.73
2017-08-15T13:09:13.713Z,51.12
2017-08-15T13:10:13.746Z,50.92
2017-08-15T13:11:13.773Z,51.21
2017-08-15T13:12:13.485Z,51.02
2017-08-15T13:13:13.526Z,51.7
2017-08-15T13:14:13.853Z,52.06
2017-08-15T13:15:13.895Z,52.28
2017-08-15T13:16:13.921Z,51.02
2017-08-15T13:17:13.629Z,50.12
2017-08-15T13:18:13.674Z,50.8
2017-08-15T13:19:13.688Z,50.51
2017-08-15T13:20:14.039Z,50.31
2017-08-15T13:21:13.757Z,50.51
2017-08-15T13:22:14.104Z,50.41
2017-08-15T13:23:13.820Z,50.9
2017-08-15T13:24:14.158Z,51.09
2017-08-15T13:25:28.783Z,50.6
2017-08-15T13:26:14.217Z,50.8
2017-08-15T13:27:14.246Z,52.26
2017-08-15T13:28:14.260Z,50.9
2017-08-15T13:29:14.309Z,50.41
2017-08-15T13:30:14.326Z,50.8
2017-08-15T13:31:14.372Z,51.09
2017-08-15T13:32:14.390Z,50.8
2017-08-15T13:33:14.422Z,51.97
2017-08-15T13:34:14.450Z,51.99
2017-08-15T13:35:14.493Z,50.92
2017-08-15T13:36:14.512Z,50.73
2017-08-15T13:37:14.542Z,50.63
2017-08-15T13:38:14.571Z,50.92
2017-08-15T13:39:14.605Z,50.92
2017-08-15T13:40:14.616Z,51.51
2017-08-15T13:41:29.255Z,51.61
2017-08-15T13:42:14.685Z,51.21
2017-08-15T13:43:14.707Z,51.9
2017-08-15T13:44:14.748Z,52.28
2017-08-15T13:45:14.774Z,50.34
2017-08-15T13:46:14.798Z,50.43
2017-08-15T13:47:14.817Z,50.82
2017-08-15T13:48:14.862Z,51.02
2017-08-15T13:49:14.879Z,51.14